sensor_id;sensor_type;location;lat;lon;timestamp;P1;durP1;ratioP1;P2;durP2;ratioP2
78549;SDS011;68091;52.130;5.570;2023-04-25T00:00:08;28.25;;;6.13;;
78549;SDS011;68091;52.130;5.570;2023-04-25T00:03:09;23.25;;;5.20;;
78549;SDS011;68091;52.130;5.570;2023-04-25T00:06:12;22.35;;;5.75;;
78549;SDS011;68091;52.130;5.570;2023-04-25T00:08:49;27.27;;;6.20;;
78549;SDS011;68091;52.130;5.570;2023-04-25T00:11:17;29.63;;;6.18;;
78549;SDS011;68091;52.130;5.570;2023-04-25T00:13:59;23.77;;;6.28;;
78549;SDS011;68091;52.130;5.570;2023-04-25T00:16:29;20.45;;;6.05;;
78549;SDS011;68091;52.130;5.570;2023-04-25T00:18:58;25.83;;;6.47;;
78549;SDS011;68091;52.130;5.570;2023-04-25T00:21:24;23.10;;;5.82;;
78549;SDS011;68091;52.130;5.570;2023-04-25T00:23:51;22.02;;;6.00;;
78549;SDS011;68091;52.130;5.570;2023-04-25T00:26:18;24.33;;;5.45;;
78549;SDS011;68091;52.130;5.570;2023-04-25T00:28:43;22.40;;;6.43;;
78549;SDS011;68091;52.130;5.570;2023-04-25T00:31:10;29.60;;;6.30;;
78549;SDS011;68091;52.130;5.570;2023-04-25T00:33:38;36.75;;;7.85;;
78549;SDS011;68091;52.130;5.570;2023-04-25T00:36:04;24.83;;;6.43;;
78549;SDS011;68091;52.130;5.570;2023-04-25T00:38:39;29.58;;;6.68;;
78549;SDS011;68091;52.130;5.570;2023-04-25T00:41:12;30.83;;;6.43;;
78549;SDS011;68091;52.130;5.570;2023-04-25T00:43:43;24.00;;;6.22;;
78549;SDS011;68091;52.130;5.570;2023-04-25T00:49:06;36.60;;;6.60;;
78549;SDS011;68091;52.130;5.570;2023-04-25T00:51:43;26.02;;;6.82;;
78549;SDS011;68091;52.130;5.570;2023-04-25T00:54:31;25.80;;;6.43;;
78549;SDS011;68091;52.130;5.570;2023-04-25T00:57:00;25.40;;;6.10;;
78549;SDS011;68091;52.130;5.570;2023-04-25T00:59:26;27.38;;;7.25;;
78549;SDS011;68091;52.130;5.570;2023-04-25T01:01:54;19.25;;;6.40;;
78549;SDS011;68091;52.130;5.570;2023-04-25T01:04:21;27.15;;;6.38;;
78549;SDS011;68091;52.130;5.570;2023-04-25T01:06:47;23.27;;;6.65;;
78549;SDS011;68091;52.130;5.570;2023-04-25T01:09:13;28.95;;;6.55;;
78549;SDS011;68091;52.130;5.570;2023-04-25T01:11:39;27.38;;;6.40;;
78549;SDS011;68091;52.130;5.570;2023-04-25T01:14:05;19.85;;;6.03;;
78549;SDS011;68091;52.130;5.570;2023-04-25T01:16:31;15.65;;;6.07;;
78549;SDS011;68091;52.130;5.570;2023-04-25T01:18:58;25.55;;;6.15;;
78549;SDS011;68091;52.130;5.570;2023-04-25T01:21:24;29.55;;;7.38;;
78549;SDS011;68091;52.130;5.570;2023-04-25T01:23:52;25.65;;;6.63;;
78549;SDS011;68091;52.130;5.570;2023-04-25T01:26:19;30.15;;;6.93;;
78549;SDS011;68091;52.130;5.570;2023-04-25T01:28:46;20.08;;;6.28;;
78549;SDS011;68091;52.130;5.570;2023-04-25T01:31:16;20.45;;;6.22;;
78549;SDS011;68091;52.130;5.570;2023-04-25T01:33:42;19.48;;;5.90;;
78549;SDS011;68091;52.130;5.570;2023-04-25T01:36:08;27.38;;;6.07;;
78549;SDS011;68091;52.130;5.570;2023-04-25T01:38:37;26.83;;;5.90;;
78549;SDS011;68091;52.130;5.570;2023-04-25T01:41:03;25.08;;;5.90;;
78549;SDS011;68091;52.130;5.570;2023-04-25T01:43:31;22.83;;;6.10;;
78549;SDS011;68091;52.130;5.570;2023-04-25T01:45:57;23.15;;;5.88;;
78549;SDS011;68091;52.130;5.570;2023-04-25T01:48:23;29.13;;;5.65;;
78549;SDS011;68091;52.130;5.570;2023-04-25T01:50:49;22.92;;;5.18;;
78549;SDS011;68091;52.130;5.570;2023-04-25T01:53:15;22.13;;;5.68;;
78549;SDS011;68091;52.130;5.570;2023-04-25T01:55:44;22.35;;;6.00;;
78549;SDS011;68091;52.130;5.570;2023-04-25T01:58:10;24.55;;;5.43;;
78549;SDS011;68091;52.130;5.570;2023-04-25T02:00:37;23.38;;;7.03;;
78549;SDS011;68091;52.130;5.570;2023-04-25T02:03:04;25.55;;;6.60;;
78549;SDS011;68091;52.130;5.570;2023-04-25T02:05:36;18.42;;;5.95;;
78549;SDS011;68091;52.130;5.570;2023-04-25T02:08:04;19.50;;;6.15;;
78549;SDS011;68091;52.130;5.570;2023-04-25T02:10:30;24.75;;;6.00;;
78549;SDS011;68091;52.130;5.570;2023-04-25T02:12:57;26.90;;;5.65;;
78549;SDS011;68091;52.130;5.570;2023-04-25T02:15:23;23.08;;;5.50;;
78549;SDS011;68091;52.130;5.570;2023-04-25T02:17:49;27.10;;;7.35;;
78549;SDS011;68091;52.130;5.570;2023-04-25T02:20:15;24.25;;;5.95;;
78549;SDS011;68091;52.130;5.570;2023-04-25T02:22:46;20.30;;;5.80;;
78549;SDS011;68091;52.130;5.570;2023-04-25T02:25:15;26.50;;;6.25;;
78549;SDS011;68091;52.130;5.570;2023-04-25T02:27:41;21.80;;;6.28;;
78549;SDS011;68091;52.130;5.570;2023-04-25T02:30:08;18.73;;;6.13;;
78549;SDS011;68091;52.130;5.570;2023-04-25T02:32:34;27.98;;;6.50;;
78549;SDS011;68091;52.130;5.570;2023-04-25T02:35:00;23.90;;;6.85;;
78549;SDS011;68091;52.130;5.570;2023-04-25T02:37:38;20.98;;;7.35;;
78549;SDS011;68091;52.130;5.570;2023-04-25T02:40:05;21.30;;;6.70;;
78549;SDS011;68091;52.130;5.570;2023-04-25T02:42:50;18.52;;;6.43;;
78549;SDS011;68091;52.130;5.570;2023-04-25T02:45:18;22.33;;;6.50;;
78549;SDS011;68091;52.130;5.570;2023-04-25T02:47:44;25.08;;;7.35;;
78549;SDS011;68091;52.130;5.570;2023-04-25T02:50:10;20.60;;;6.38;;
78549;SDS011;68091;52.130;5.570;2023-04-25T02:52:36;23.75;;;7.40;;
78549;SDS011;68091;52.130;5.570;2023-04-25T02:55:02;24.73;;;6.72;;
78549;SDS011;68091;52.130;5.570;2023-04-25T02:57:28;20.15;;;7.22;;
78549;SDS011;68091;52.130;5.570;2023-04-25T02:59:54;26.60;;;7.07;;
78549;SDS011;68091;52.130;5.570;2023-04-25T03:02:19;21.10;;;7.65;;
78549;SDS011;68091;52.130;5.570;2023-04-25T03:04:45;27.00;;;7.45;;
78549;SDS011;68091;52.130;5.570;2023-04-25T03:07:11;34.58;;;8.07;;
78549;SDS011;68091;52.130;5.570;2023-04-25T03:09:36;25.75;;;8.00;;
78549;SDS011;68091;52.130;5.570;2023-04-25T03:12:02;21.08;;;7.72;;
78549;SDS011;68091;52.130;5.570;2023-04-25T03:14:28;25.17;;;7.28;;
78549;SDS011;68091;52.130;5.570;2023-04-25T03:16:54;21.95;;;7.05;;
78549;SDS011;68091;52.130;5.570;2023-04-25T03:19:20;16.17;;;6.60;;
78549;SDS011;68091;52.130;5.570;2023-04-25T03:21:46;22.00;;;6.60;;
78549;SDS011;68091;52.130;5.570;2023-04-25T03:24:12;22.92;;;6.70;;
78549;SDS011;68091;52.130;5.570;2023-04-25T03:26:38;23.55;;;7.40;;
78549;SDS011;68091;52.130;5.570;2023-04-25T03:29:03;32.55;;;7.30;;
78549;SDS011;68091;52.130;5.570;2023-04-25T03:31:29;21.92;;;6.15;;
78549;SDS011;68091;52.130;5.570;2023-04-25T03:33:55;29.00;;;7.25;;
78549;SDS011;68091;52.130;5.570;2023-04-25T03:36:21;32.22;;;7.45;;
78549;SDS011;68091;52.130;5.570;2023-04-25T03:38:47;32.40;;;7.82;;
78549;SDS011;68091;52.130;5.570;2023-04-25T03:41:16;27.35;;;7.15;;
78549;SDS011;68091;52.130;5.570;2023-04-25T03:43:42;22.50;;;6.13;;
78549;SDS011;68091;52.130;5.570;2023-04-25T03:46:07;21.65;;;6.55;;
78549;SDS011;68091;52.130;5.570;2023-04-25T03:48:33;23.98;;;7.32;;
78549;SDS011;68091;52.130;5.570;2023-04-25T03:51:01;17.70;;;5.45;;
78549;SDS011;68091;52.130;5.570;2023-04-25T03:53:27;24.38;;;6.55;;
78549;SDS011;68091;52.130;5.570;2023-04-25T03:55:53;31.00;;;6.72;;
78549;SDS011;68091;52.130;5.570;2023-04-25T03:58:25;17.13;;;6.00;;
78549;SDS011;68091;52.130;5.570;2023-04-25T04:00:51;20.42;;;5.93;;
78549;SDS011;68091;52.130;5.570;2023-04-25T04:03:17;25.48;;;6.85;;
78549;SDS011;68091;52.130;5.570;2023-04-25T04:05:43;23.33;;;5.95;;
78549;SDS011;68091;52.130;5.570;2023-04-25T04:08:10;24.80;;;5.65;;
78549;SDS011;68091;52.130;5.570;2023-04-25T04:10:35;19.40;;;5.88;;
78549;SDS011;68091;52.130;5.570;2023-04-25T04:13:01;29.65;;;6.60;;
78549;SDS011;68091;52.130;5.570;2023-04-25T04:15:27;23.50;;;6.32;;
78549;SDS011;68091;52.130;5.570;2023-04-25T04:17:54;29.55;;;5.32;;
78549;SDS011;68091;52.130;5.570;2023-04-25T04:20:20;25.63;;;5.50;;
78549;SDS011;68091;52.130;5.570;2023-04-25T04:22:46;18.58;;;5.60;;
78549;SDS011;68091;52.130;5.570;2023-04-25T04:25:14;24.42;;;5.47;;
78549;SDS011;68091;52.130;5.570;2023-04-25T04:27:40;22.58;;;5.88;;
78549;SDS011;68091;52.130;5.570;2023-04-25T04:30:06;29.30;;;6.05;;
78549;SDS011;68091;52.130;5.570;2023-04-25T04:32:33;25.80;;;4.65;;
78549;SDS011;68091;52.130;5.570;2023-04-25T04:34:59;23.48;;;5.68;;
78549;SDS011;68091;52.130;5.570;2023-04-25T04:37:25;17.98;;;5.05;;
78549;SDS011;68091;52.130;5.570;2023-04-25T04:39:51;20.17;;;5.88;;
78549;SDS011;68091;52.130;5.570;2023-04-25T04:42:17;23.10;;;6.72;;
78549;SDS011;68091;52.130;5.570;2023-04-25T04:44:43;18.10;;;6.30;;
78549;SDS011;68091;52.130;5.570;2023-04-25T04:47:09;18.77;;;4.65;;
78549;SDS011;68091;52.130;5.570;2023-04-25T04:49:35;23.25;;;5.80;;
78549;SDS011;68091;52.130;5.570;2023-04-25T04:52:01;14.68;;;4.38;;
78549;SDS011;68091;52.130;5.570;2023-04-25T04:54:27;19.83;;;4.93;;
78549;SDS011;68091;52.130;5.570;2023-04-25T04:56:53;14.63;;;4.30;;
78549;SDS011;68091;52.130;5.570;2023-04-25T04:59:18;19.42;;;4.43;;
78549;SDS011;68091;52.130;5.570;2023-04-25T05:01:44;20.48;;;4.40;;
78549;SDS011;68091;52.130;5.570;2023-04-25T05:04:11;13.60;;;4.93;;
78549;SDS011;68091;52.130;5.570;2023-04-25T05:06:39;16.35;;;4.78;;
78549;SDS011;68091;52.130;5.570;2023-04-25T05:09:05;18.73;;;5.93;;
78549;SDS011;68091;52.130;5.570;2023-04-25T05:11:31;16.98;;;5.57;;
78549;SDS011;68091;52.130;5.570;2023-04-25T05:13:57;17.13;;;5.00;;
78549;SDS011;68091;52.130;5.570;2023-04-25T05:16:23;13.77;;;4.53;;
78549;SDS011;68091;52.130;5.570;2023-04-25T05:18:48;15.07;;;4.32;;
78549;SDS011;68091;52.130;5.570;2023-04-25T05:21:14;14.93;;;3.67;;
78549;SDS011;68091;52.130;5.570;2023-04-25T05:23:40;15.68;;;4.22;;
78549;SDS011;68091;52.130;5.570;2023-04-25T05:26:06;12.45;;;3.67;;
78549;SDS011;68091;52.130;5.570;2023-04-25T05:28:41;8.05;;;2.80;;
78549;SDS011;68091;52.130;5.570;2023-04-25T05:31:09;8.18;;;2.88;;
78549;SDS011;68091;52.130;5.570;2023-04-25T05:33:35;9.27;;;2.72;;
78549;SDS011;68091;52.130;5.570;2023-04-25T05:36:01;10.60;;;2.50;;
78549;SDS011;68091;52.130;5.570;2023-04-25T05:38:33;12.40;;;2.85;;
78549;SDS011;68091;52.130;5.570;2023-04-25T05:40:59;12.63;;;2.85;;
78549;SDS011;68091;52.130;5.570;2023-04-25T05:43:24;17.80;;;3.60;;
78549;SDS011;68091;52.130;5.570;2023-04-25T05:45:50;22.08;;;3.75;;
78549;SDS011;68091;52.130;5.570;2023-04-25T05:48:16;12.93;;;3.58;;
78549;SDS011;68091;52.130;5.570;2023-04-25T05:50:42;15.50;;;3.95;;
78549;SDS011;68091;52.130;5.570;2023-04-25T05:53:08;13.77;;;2.90;;
78549;SDS011;68091;52.130;5.570;2023-04-25T05:55:34;13.90;;;3.70;;
78549;SDS011;68091;52.130;5.570;2023-04-25T05:58:02;12.98;;;2.95;;
78549;SDS011;68091;52.130;5.570;2023-04-25T06:00:34;9.88;;;2.65;;
78549;SDS011;68091;52.130;5.570;2023-04-25T06:03:00;11.82;;;3.00;;
78549;SDS011;68091;52.130;5.570;2023-04-25T06:05:26;9.68;;;2.70;;
78549;SDS011;68091;52.130;5.570;2023-04-25T06:07:52;9.35;;;3.15;;
78549;SDS011;68091;52.130;5.570;2023-04-25T06:10:21;13.93;;;2.95;;
78549;SDS011;68091;52.130;5.570;2023-04-25T06:12:47;12.85;;;4.55;;
78549;SDS011;68091;52.130;5.570;2023-04-25T06:15:14;12.23;;;2.70;;
78549;SDS011;68091;52.130;5.570;2023-04-25T06:17:40;9.10;;;2.60;;
78549;SDS011;68091;52.130;5.570;2023-04-25T06:20:06;14.30;;;3.28;;
78549;SDS011;68091;52.130;5.570;2023-04-25T06:22:33;14.57;;;3.10;;
78549;SDS011;68091;52.130;5.570;2023-04-25T06:24:59;8.35;;;2.40;;
78549;SDS011;68091;52.130;5.570;2023-04-25T06:27:25;13.05;;;3.80;;
78549;SDS011;68091;52.130;5.570;2023-04-25T06:29:51;18.95;;;3.58;;
78549;SDS011;68091;52.130;5.570;2023-04-25T06:32:17;11.15;;;3.50;;
78549;SDS011;68091;52.130;5.570;2023-04-25T06:37:11;11.85;;;3.17;;
78549;SDS011;68091;52.130;5.570;2023-04-25T06:39:37;15.48;;;3.20;;
78549;SDS011;68091;52.130;5.570;2023-04-25T06:42:03;13.95;;;2.72;;
78549;SDS011;68091;52.130;5.570;2023-04-25T06:44:28;8.57;;;2.47;;
78549;SDS011;68091;52.130;5.570;2023-04-25T06:46:55;16.25;;;2.63;;
78549;SDS011;68091;52.130;5.570;2023-04-25T06:49:21;13.30;;;2.70;;
78549;SDS011;68091;52.130;5.570;2023-04-25T06:51:47;14.00;;;2.70;;
78549;SDS011;68091;52.130;5.570;2023-04-25T06:54:13;15.75;;;3.00;;
78549;SDS011;68091;52.130;5.570;2023-04-25T06:56:39;11.20;;;2.60;;
78549;SDS011;68091;52.130;5.570;2023-04-25T06:59:05;15.50;;;2.95;;
78549;SDS011;68091;52.130;5.570;2023-04-25T07:01:30;15.05;;;2.70;;
78549;SDS011;68091;52.130;5.570;2023-04-25T07:03:56;16.20;;;2.85;;
78549;SDS011;68091;52.130;5.570;2023-04-25T07:06:22;13.95;;;2.53;;
78549;SDS011;68091;52.130;5.570;2023-04-25T07:08:48;16.13;;;3.88;;
78549;SDS011;68091;52.130;5.570;2023-04-25T07:11:13;14.40;;;2.70;;
78549;SDS011;68091;52.130;5.570;2023-04-25T07:13:39;14.88;;;3.08;;
78549;SDS011;68091;52.130;5.570;2023-04-25T07:16:05;20.33;;;4.05;;
78549;SDS011;68091;52.130;5.570;2023-04-25T07:18:31;16.42;;;3.63;;
78549;SDS011;68091;52.130;5.570;2023-04-25T07:20:57;26.85;;;3.15;;
78549;SDS011;68091;52.130;5.570;2023-04-25T07:23:22;19.50;;;2.55;;
78549;SDS011;68091;52.130;5.570;2023-04-25T07:25:48;14.60;;;2.97;;
78549;SDS011;68091;52.130;5.570;2023-04-25T07:28:14;13.00;;;2.72;;
78549;SDS011;68091;52.130;5.570;2023-04-25T07:30:40;17.83;;;2.67;;
78549;SDS011;68091;52.130;5.570;2023-04-25T07:33:06;13.40;;;2.40;;
78549;SDS011;68091;52.130;5.570;2023-04-25T07:37:57;10.77;;;2.42;;
78549;SDS011;68091;52.130;5.570;2023-04-25T07:40:24;16.25;;;2.25;;
78549;SDS011;68091;52.130;5.570;2023-04-25T07:42:49;8.02;;;1.90;;
78549;SDS011;68091;52.130;5.570;2023-04-25T07:45:15;12.68;;;2.33;;
78549;SDS011;68091;52.130;5.570;2023-04-25T07:47:41;11.20;;;2.33;;
78549;SDS011;68091;52.130;5.570;2023-04-25T07:50:07;15.07;;;2.25;;
78549;SDS011;68091;52.130;5.570;2023-04-25T07:52:34;11.43;;;2.30;;
78549;SDS011;68091;52.130;5.570;2023-04-25T07:55:00;12.38;;;2.67;;
78549;SDS011;68091;52.130;5.570;2023-04-25T07:57:25;17.38;;;2.78;;
78549;SDS011;68091;52.130;5.570;2023-04-25T07:59:51;14.38;;;2.58;;
78549;SDS011;68091;52.130;5.570;2023-04-25T08:02:17;12.93;;;2.65;;
78549;SDS011;68091;52.130;5.570;2023-04-25T08:04:43;13.68;;;1.98;;
78549;SDS011;68091;52.130;5.570;2023-04-25T08:07:09;12.15;;;2.33;;
78549;SDS011;68091;52.130;5.570;2023-04-25T08:09:34;11.55;;;2.22;;
78549;SDS011;68091;52.130;5.570;2023-04-25T08:12:01;17.60;;;2.05;;
78549;SDS011;68091;52.130;5.570;2023-04-25T08:14:28;17.13;;;3.03;;
78549;SDS011;68091;52.130;5.570;2023-04-25T08:17:00;13.93;;;2.03;;
78549;SDS011;68091;52.130;5.570;2023-04-25T08:19:28;11.23;;;2.17;;
78549;SDS011;68091;52.130;5.570;2023-04-25T08:21:54;10.10;;;1.65;;
78549;SDS011;68091;52.130;5.570;2023-04-25T08:24:21;11.07;;;2.03;;
78549;SDS011;68091;52.130;5.570;2023-04-25T08:26:51;15.90;;;2.35;;
78549;SDS011;68091;52.130;5.570;2023-04-25T08:29:17;14.52;;;2.30;;
78549;SDS011;68091;52.130;5.570;2023-04-25T08:31:43;14.15;;;2.17;;
78549;SDS011;68091;52.130;5.570;2023-04-25T08:34:09;14.70;;;2.20;;
78549;SDS011;68091;52.130;5.570;2023-04-25T08:36:34;16.25;;;2.10;;
78549;SDS011;68091;52.130;5.570;2023-04-25T08:39:00;11.05;;;2.28;;
78549;SDS011;68091;52.130;5.570;2023-04-25T08:41:26;8.38;;;2.03;;
78549;SDS011;68091;52.130;5.570;2023-04-25T08:43:53;13.55;;;2.20;;
78549;SDS011;68091;52.130;5.570;2023-04-25T08:46:21;10.95;;;2.15;;
78549;SDS011;68091;52.130;5.570;2023-04-25T08:48:48;12.90;;;2.13;;
78549;SDS011;68091;52.130;5.570;2023-04-25T08:51:22;8.85;;;1.52;;
78549;SDS011;68091;52.130;5.570;2023-04-25T08:53:53;8.40;;;1.77;;
78549;SDS011;68091;52.130;5.570;2023-04-25T08:56:19;10.13;;;1.70;;
78549;SDS011;68091;52.130;5.570;2023-04-25T08:58:48;8.75;;;1.58;;
78549;SDS011;68091;52.130;5.570;2023-04-25T09:01:15;12.65;;;2.17;;
78549;SDS011;68091;52.130;5.570;2023-04-25T09:03:42;10.63;;;1.98;;
78549;SDS011;68091;52.130;5.570;2023-04-25T09:06:09;11.05;;;1.67;;
78549;SDS011;68091;52.130;5.570;2023-04-25T09:08:36;9.90;;;1.77;;
78549;SDS011;68091;52.130;5.570;2023-04-25T09:11:02;6.75;;;1.75;;
78549;SDS011;68091;52.130;5.570;2023-04-25T09:13:28;11.00;;;1.88;;
78549;SDS011;68091;52.130;5.570;2023-04-25T09:15:55;6.55;;;1.60;;
78549;SDS011;68091;52.130;5.570;2023-04-25T09:18:26;6.75;;;1.90;;
78549;SDS011;68091;52.130;5.570;2023-04-25T09:20:53;14.70;;;3.88;;
78549;SDS011;68091;52.130;5.570;2023-04-25T09:23:20;32.80;;;15.10;;
78549;SDS011;68091;52.130;5.570;2023-04-25T09:25:48;9.23;;;2.08;;
78549;SDS011;68091;52.130;5.570;2023-04-25T09:28:15;8.05;;;1.58;;
78549;SDS011;68091;52.130;5.570;2023-04-25T09:30:56;9.43;;;1.67;;
78549;SDS011;68091;52.130;5.570;2023-04-25T09:33:29;12.55;;;4.38;;
78549;SDS011;68091;52.130;5.570;2023-04-25T09:36:03;8.95;;;1.60;;
78549;SDS011;68091;52.130;5.570;2023-04-25T09:38:42;7.85;;;1.75;;
78549;SDS011;68091;52.130;5.570;2023-04-25T09:41:09;5.13;;;1.48;;
78549;SDS011;68091;52.130;5.570;2023-04-25T09:43:36;8.45;;;1.77;;
78549;SDS011;68091;52.130;5.570;2023-04-25T09:46:04;9.88;;;1.50;;
78549;SDS011;68091;52.130;5.570;2023-04-25T09:48:36;5.57;;;1.30;;
78549;SDS011;68091;52.130;5.570;2023-04-25T09:53:36;9.75;;;1.77;;
78549;SDS011;68091;52.130;5.570;2023-04-25T09:56:03;8.82;;;1.85;;
78549;SDS011;68091;52.130;5.570;2023-04-25T09:58:31;7.35;;;1.38;;
78549;SDS011;68091;52.130;5.570;2023-04-25T10:01:09;8.77;;;2.05;;
78549;SDS011;68091;52.130;5.570;2023-04-25T10:03:36;5.38;;;1.40;;
78549;SDS011;68091;52.130;5.570;2023-04-25T10:06:07;6.72;;;1.30;;
78549;SDS011;68091;52.130;5.570;2023-04-25T10:08:44;6.57;;;1.55;;
78549;SDS011;68091;52.130;5.570;2023-04-25T10:11:10;12.48;;;1.55;;
78549;SDS011;68091;52.130;5.570;2023-04-25T10:13:39;10.48;;;1.38;;
78549;SDS011;68091;52.130;5.570;2023-04-25T10:16:09;9.57;;;1.63;;
78549;SDS011;68091;52.130;5.570;2023-04-25T10:18:35;7.22;;;1.60;;
78549;SDS011;68091;52.130;5.570;2023-04-25T10:21:03;10.48;;;1.70;;
78549;SDS011;68091;52.130;5.570;2023-04-25T10:23:32;6.18;;;1.52;;
78549;SDS011;68091;52.130;5.570;2023-04-25T10:25:59;10.52;;;1.60;;
78549;SDS011;68091;52.130;5.570;2023-04-25T10:28:26;6.28;;;1.40;;
78549;SDS011;68091;52.130;5.570;2023-04-25T10:31:00;8.40;;;1.40;;
78549;SDS011;68091;52.130;5.570;2023-04-25T10:33:34;6.00;;;1.38;;
78549;SDS011;68091;52.130;5.570;2023-04-25T10:36:14;8.18;;;1.45;;
78549;SDS011;68091;52.130;5.570;2023-04-25T10:38:42;11.70;;;1.92;;
78549;SDS011;68091;52.130;5.570;2023-04-25T10:41:10;9.52;;;1.88;;
78549;SDS011;68091;52.130;5.570;2023-04-25T10:46:22;7.00;;;1.55;;
78549;SDS011;68091;52.130;5.570;2023-04-25T10:48:51;3.72;;;1.15;;
78549;SDS011;68091;52.130;5.570;2023-04-25T10:51:22;9.27;;;1.55;;
78549;SDS011;68091;52.130;5.570;2023-04-25T10:54:07;12.15;;;1.77;;
78549;SDS011;68091;52.130;5.570;2023-04-25T10:56:36;6.00;;;1.42;;
78549;SDS011;68091;52.130;5.570;2023-04-25T10:59:15;3.45;;;1.20;;
78549;SDS011;68091;52.130;5.570;2023-04-25T11:04:23;9.50;;;1.58;;
78549;SDS011;68091;52.130;5.570;2023-04-25T11:09:32;7.60;;;1.80;;
78549;SDS011;68091;52.130;5.570;2023-04-25T11:11:59;13.40;;;1.63;;
78549;SDS011;68091;52.130;5.570;2023-04-25T11:14:25;6.40;;;1.77;;
78549;SDS011;68091;52.130;5.570;2023-04-25T11:16:58;5.38;;;1.33;;
78549;SDS011;68091;52.130;5.570;2023-04-25T11:19:24;7.60;;;1.35;;
78549;SDS011;68091;52.130;5.570;2023-04-25T11:21:54;10.32;;;1.55;;
78549;SDS011;68091;52.130;5.570;2023-04-25T11:24:25;9.82;;;1.55;;
78549;SDS011;68091;52.130;5.570;2023-04-25T11:26:55;8.50;;;1.60;;
78549;SDS011;68091;52.130;5.570;2023-04-25T11:29:22;4.93;;;1.58;;
78549;SDS011;68091;52.130;5.570;2023-04-25T11:31:48;8.43;;;1.70;;
78549;SDS011;68091;52.130;5.570;2023-04-25T11:34:17;11.05;;;2.08;;
78549;SDS011;68091;52.130;5.570;2023-04-25T11:36:44;12.20;;;1.77;;
78549;SDS011;68091;52.130;5.570;2023-04-25T11:39:11;9.70;;;2.33;;
78549;SDS011;68091;52.130;5.570;2023-04-25T11:41:37;9.65;;;1.80;;
78549;SDS011;68091;52.130;5.570;2023-04-25T11:44:03;6.85;;;1.92;;
78549;SDS011;68091;52.130;5.570;2023-04-25T11:46:30;8.35;;;2.28;;
78549;SDS011;68091;52.130;5.570;2023-04-25T11:48:58;9.00;;;1.90;;
78549;SDS011;68091;52.130;5.570;2023-04-25T11:51:24;8.73;;;1.73;;
78549;SDS011;68091;52.130;5.570;2023-04-25T11:53:51;8.75;;;1.70;;
78549;SDS011;68091;52.130;5.570;2023-04-25T11:56:17;15.55;;;2.13;;
78549;SDS011;68091;52.130;5.570;2023-04-25T11:58:56;10.93;;;1.90;;
78549;SDS011;68091;52.130;5.570;2023-04-25T12:01:29;8.45;;;1.77;;
78549;SDS011;68091;52.130;5.570;2023-04-25T12:04:10;14.00;;;2.03;;
78549;SDS011;68091;52.130;5.570;2023-04-25T12:06:43;10.48;;;1.70;;
78549;SDS011;68091;52.130;5.570;2023-04-25T12:09:12;10.52;;;1.77;;
78549;SDS011;68091;52.130;5.570;2023-04-25T12:11:53;10.60;;;2.30;;
78549;SDS011;68091;52.130;5.570;2023-04-25T12:14:24;6.82;;;1.83;;
78549;SDS011;68091;52.130;5.570;2023-04-25T12:16:52;9.07;;;1.60;;
78549;SDS011;68091;52.130;5.570;2023-04-25T12:19:20;8.65;;;1.67;;
78549;SDS011;68091;52.130;5.570;2023-04-25T12:21:47;10.90;;;1.95;;
78549;SDS011;68091;52.130;5.570;2023-04-25T12:26:47;8.13;;;1.85;;
78549;SDS011;68091;52.130;5.570;2023-04-25T12:29:27;7.43;;;1.23;;
78549;SDS011;68091;52.130;5.570;2023-04-25T12:31:55;10.00;;;1.70;;
78549;SDS011;68091;52.130;5.570;2023-04-25T12:34:22;8.93;;;1.50;;
78549;SDS011;68091;52.130;5.570;2023-04-25T12:36:48;5.38;;;1.40;;
78549;SDS011;68091;52.130;5.570;2023-04-25T12:39:16;7.65;;;1.50;;
78549;SDS011;68091;52.130;5.570;2023-04-25T12:41:43;10.93;;;2.03;;
78549;SDS011;68091;52.130;5.570;2023-04-25T12:44:09;9.85;;;1.90;;
78549;SDS011;68091;52.130;5.570;2023-04-25T12:46:35;10.27;;;1.83;;
78549;SDS011;68091;52.130;5.570;2023-04-25T12:49:02;8.38;;;1.60;;
78549;SDS011;68091;52.130;5.570;2023-04-25T12:51:28;9.65;;;1.35;;
78549;SDS011;68091;52.130;5.570;2023-04-25T12:53:54;10.25;;;1.60;;
78549;SDS011;68091;52.130;5.570;2023-04-25T12:56:24;4.70;;;1.42;;
78549;SDS011;68091;52.130;5.570;2023-04-25T12:58:51;3.03;;;1.10;;
78549;SDS011;68091;52.130;5.570;2023-04-25T13:01:20;8.80;;;1.50;;
78549;SDS011;68091;52.130;5.570;2023-04-25T13:03:49;7.97;;;1.70;;
78549;SDS011;68091;52.130;5.570;2023-04-25T13:06:16;5.75;;;1.42;;
78549;SDS011;68091;52.130;5.570;2023-04-25T13:08:42;6.32;;;1.00;;
78549;SDS011;68091;52.130;5.570;2023-04-25T13:11:08;4.72;;;1.50;;
78549;SDS011;68091;52.130;5.570;2023-04-25T13:13:37;5.88;;;1.17;;
78549;SDS011;68091;52.130;5.570;2023-04-25T13:16:05;4.50;;;1.20;;
78549;SDS011;68091;52.130;5.570;2023-04-25T13:18:32;7.80;;;1.35;;
78549;SDS011;68091;52.130;5.570;2023-04-25T13:20:58;3.67;;;1.20;;
78549;SDS011;68091;52.130;5.570;2023-04-25T13:23:25;4.10;;;1.70;;
78549;SDS011;68091;52.130;5.570;2023-04-25T13:25:52;8.00;;;1.20;;
78549;SDS011;68091;52.130;5.570;2023-04-25T13:28:19;5.82;;;1.58;;
78549;SDS011;68091;52.130;5.570;2023-04-25T13:30:45;7.43;;;1.40;;
78549;SDS011;68091;52.130;5.570;2023-04-25T13:33:13;10.65;;;1.83;;
78549;SDS011;68091;52.130;5.570;2023-04-25T13:35:39;8.57;;;1.77;;
78549;SDS011;68091;52.130;5.570;2023-04-25T13:38:05;8.20;;;1.50;;
78549;SDS011;68091;52.130;5.570;2023-04-25T13:40:31;10.55;;;2.05;;
78549;SDS011;68091;52.130;5.570;2023-04-25T13:42:57;6.93;;;2.05;;
78549;SDS011;68091;52.130;5.570;2023-04-25T13:45:23;6.75;;;1.98;;
78549;SDS011;68091;52.130;5.570;2023-04-25T13:47:48;6.13;;;1.50;;
78549;SDS011;68091;52.130;5.570;2023-04-25T13:50:17;14.18;;;2.45;;
78549;SDS011;68091;52.130;5.570;2023-04-25T13:52:46;7.72;;;1.90;;
78549;SDS011;68091;52.130;5.570;2023-04-25T13:55:12;6.13;;;1.65;;
78549;SDS011;68091;52.130;5.570;2023-04-25T13:57:38;4.78;;;1.25;;
78549;SDS011;68091;52.130;5.570;2023-04-25T14:00:04;5.68;;;1.40;;
78549;SDS011;68091;52.130;5.570;2023-04-25T14:02:37;4.50;;;1.50;;
78549;SDS011;68091;52.130;5.570;2023-04-25T14:05:03;10.93;;;2.30;;
78549;SDS011;68091;52.130;5.570;2023-04-25T14:07:30;6.32;;;1.65;;
78549;SDS011;68091;52.130;5.570;2023-04-25T14:09:56;7.63;;;1.40;;
78549;SDS011;68091;52.130;5.570;2023-04-25T14:12:22;5.40;;;1.30;;
78549;SDS011;68091;52.130;5.570;2023-04-25T14:14:48;4.53;;;1.27;;
78549;SDS011;68091;52.130;5.570;2023-04-25T14:17:14;11.32;;;1.90;;
78549;SDS011;68091;52.130;5.570;2023-04-25T14:19:40;5.45;;;1.30;;
78549;SDS011;68091;52.130;5.570;2023-04-25T14:22:10;5.28;;;1.55;;
78549;SDS011;68091;52.130;5.570;2023-04-25T14:24:36;7.10;;;1.30;;
78549;SDS011;68091;52.130;5.570;2023-04-25T14:27:03;6.50;;;1.65;;
78549;SDS011;68091;52.130;5.570;2023-04-25T14:29:29;6.38;;;1.50;;
78549;SDS011;68091;52.130;5.570;2023-04-25T14:31:55;7.60;;;1.50;;
78549;SDS011;68091;52.130;5.570;2023-04-25T14:34:22;5.50;;;1.30;;
78549;SDS011;68091;52.130;5.570;2023-04-25T14:36:48;9.68;;;1.88;;
78549;SDS011;68091;52.130;5.570;2023-04-25T14:39:17;5.53;;;2.17;;
78549;SDS011;68091;52.130;5.570;2023-04-25T14:41:43;8.07;;;2.10;;
78549;SDS011;68091;52.130;5.570;2023-04-25T14:44:09;5.65;;;1.73;;
78549;SDS011;68091;52.130;5.570;2023-04-25T14:46:52;5.38;;;1.60;;
78549;SDS011;68091;52.130;5.570;2023-04-25T14:49:18;10.05;;;1.92;;
78549;SDS011;68091;52.130;5.570;2023-04-25T14:51:44;8.82;;;1.70;;
78549;SDS011;68091;52.130;5.570;2023-04-25T14:54:10;7.00;;;1.40;;
78549;SDS011;68091;52.130;5.570;2023-04-25T14:56:36;8.63;;;2.03;;
78549;SDS011;68091;52.130;5.570;2023-04-25T14:59:02;5.25;;;1.55;;
78549;SDS011;68091;52.130;5.570;2023-04-25T15:01:28;6.25;;;1.52;;